Eureka, Canada
Current Conditions -  °F | °C
As of 12:00 PM on Saturday 20 Dec 2014 (Local Time) from CWEU Reporting Station
Few Clouds Few Clouds  
Wind Chill: -35°   Ceiling: Unl
Heat Index: -35°   Visibility: 15mi
Dew Point: -42°   Wind: 2mph
Humidity: 68%   Direction: 90°E
Pressure: 29.94"   Gusts: NA
Location:  79.98°N, 85.83°W
Report Text: CWEU 201800Z 09002KT 15SM FEW100 M37/M41 A2994 RMK AC1 SLP143
Loading
Personal Weather Stations






























Interactive Weather Map New forecast layout! Learn more

10-Day Weather Forecast

Advertisements
Track Severe Weather on mobile